sensor_id;sensor_type;location;lat;lon;timestamp;P1;durP1;ratioP1;P2;durP2;ratioP2
10230;SDS011;62604;49.432;8.680;2023-08-12T00:00:06;4.78;;;4.38;;
10230;SDS011;62604;49.432;8.680;2023-08-12T00:02:36;4.75;;;4.32;;
10230;SDS011;62604;49.432;8.680;2023-08-12T00:05:04;4.47;;;4.10;;
10230;SDS011;62604;49.432;8.680;2023-08-12T00:07:32;5.22;;;4.82;;
10230;SDS011;62604;49.432;8.680;2023-08-12T00:09:59;4.63;;;4.32;;
10230;SDS011;62604;49.432;8.680;2023-08-12T00:12:26;4.75;;;4.35;;
10230;SDS011;62604;49.432;8.680;2023-08-12T00:14:53;4.50;;;4.20;;
10230;SDS011;62604;49.432;8.680;2023-08-12T00:17:21;5.05;;;4.72;;
10230;SDS011;62604;49.432;8.680;2023-08-12T00:19:48;4.78;;;4.47;;
10230;SDS011;62604;49.432;8.680;2023-08-12T00:22:15;4.80;;;4.40;;
10230;SDS011;62604;49.432;8.680;2023-08-12T00:24:42;4.72;;;4.43;;
10230;SDS011;62604;49.432;8.680;2023-08-12T00:27:09;5.68;;;5.18;;
10230;SDS011;62604;49.432;8.680;2023-08-12T00:29:36;5.10;;;4.70;;
10230;SDS011;62604;49.432;8.680;2023-08-12T00:32:03;4.78;;;4.38;;
10230;SDS011;62604;49.432;8.680;2023-08-12T00:34:32;4.72;;;4.32;;
10230;SDS011;62604;49.432;8.680;2023-08-12T00:36:59;5.22;;;4.72;;
10230;SDS011;62604;49.432;8.680;2023-08-12T00:39:26;4.93;;;4.60;;
10230;SDS011;62604;49.432;8.680;2023-08-12T00:41:53;5.57;;;4.90;;
10230;SDS011;62604;49.432;8.680;2023-08-12T00:44:20;4.60;;;4.30;;
10230;SDS011;62604;49.432;8.680;2023-08-12T00:46:47;5.03;;;4.63;;
10230;SDS011;62604;49.432;8.680;2023-08-12T00:49:15;4.88;;;4.32;;
10230;SDS011;62604;49.432;8.680;2023-08-12T00:51:44;4.35;;;4.05;;
10230;SDS011;62604;49.432;8.680;2023-08-12T00:54:13;4.65;;;4.20;;
10230;SDS011;62604;49.432;8.680;2023-08-12T00:56:41;8.20;;;4.40;;
10230;SDS011;62604;49.432;8.680;2023-08-12T00:59:10;4.68;;;4.30;;
10230;SDS011;62604;49.432;8.680;2023-08-12T01:01:38;5.38;;;4.40;;
10230;SDS011;62604;49.432;8.680;2023-08-12T01:04:07;4.82;;;4.43;;
10230;SDS011;62604;49.432;8.680;2023-08-12T01:06:34;5.57;;;4.15;;
10230;SDS011;62604;49.432;8.680;2023-08-12T01:09:03;4.68;;;4.28;;
10230;SDS011;62604;49.432;8.680;2023-08-12T01:11:33;4.20;;;3.90;;
10230;SDS011;62604;49.432;8.680;2023-08-12T01:14:06;5.25;;;4.75;;
10230;SDS011;62604;49.432;8.680;2023-08-12T01:16:39;4.57;;;4.13;;
10230;SDS011;62604;49.432;8.680;2023-08-12T01:19:17;4.70;;;4.30;;
10230;SDS011;62604;49.432;8.680;2023-08-12T01:21:49;5.38;;;4.20;;
10230;SDS011;62604;49.432;8.680;2023-08-12T01:24:22;5.15;;;4.68;;
10230;SDS011;62604;49.432;8.680;2023-08-12T01:26:50;4.95;;;4.50;;
10230;SDS011;62604;49.432;8.680;2023-08-12T01:29:17;6.07;;;4.43;;
10230;SDS011;62604;49.432;8.680;2023-08-12T01:31:45;4.47;;;4.18;;
10230;SDS011;62604;49.432;8.680;2023-08-12T01:34:19;4.90;;;4.50;;
10230;SDS011;62604;49.432;8.680;2023-08-12T01:36:53;5.43;;;4.95;;
10230;SDS011;62604;49.432;8.680;2023-08-12T01:39:24;4.78;;;4.47;;
10230;SDS011;62604;49.432;8.680;2023-08-12T01:41:52;5.32;;;4.78;;
10230;SDS011;62604;49.432;8.680;2023-08-12T01:44:21;4.72;;;4.32;;
10230;SDS011;62604;49.432;8.680;2023-08-12T01:46:48;5.35;;;4.88;;
10230;SDS011;62604;49.432;8.680;2023-08-12T01:49:16;8.07;;;4.55;;
10230;SDS011;62604;49.432;8.680;2023-08-12T01:51:43;4.75;;;4.35;;
10230;SDS011;62604;49.432;8.680;2023-08-12T01:54:10;4.85;;;4.40;;
10230;SDS011;62604;49.432;8.680;2023-08-12T01:56:38;4.30;;;4.00;;
10230;SDS011;62604;49.432;8.680;2023-08-12T01:59:05;4.97;;;4.60;;
10230;SDS011;62604;49.432;8.680;2023-08-12T02:01:32;5.03;;;4.63;;
10230;SDS011;62604;49.432;8.680;2023-08-12T02:03:59;5.47;;;4.85;;
10230;SDS011;62604;49.432;8.680;2023-08-12T02:06:26;5.10;;;4.70;;
10230;SDS011;62604;49.432;8.680;2023-08-12T02:08:52;4.47;;;4.18;;
10230;SDS011;62604;49.432;8.680;2023-08-12T02:11:19;5.22;;;4.82;;
10230;SDS011;62604;49.432;8.680;2023-08-12T02:13:48;5.30;;;4.80;;
10230;SDS011;62604;49.432;8.680;2023-08-12T02:16:14;5.85;;;4.60;;
10230;SDS011;62604;49.432;8.680;2023-08-12T02:18:41;5.30;;;4.43;;
10230;SDS011;62604;49.432;8.680;2023-08-12T02:21:08;5.10;;;4.60;;
10230;SDS011;62604;49.432;8.680;2023-08-12T02:23:35;4.90;;;4.50;;
10230;SDS011;62604;49.432;8.680;2023-08-12T02:26:02;6.20;;;4.95;;
10230;SDS011;62604;49.432;8.680;2023-08-12T02:28:29;4.90;;;4.45;;
10230;SDS011;62604;49.432;8.680;2023-08-12T02:30:57;4.45;;;4.05;;
10230;SDS011;62604;49.432;8.680;2023-08-12T02:33:24;5.43;;;5.03;;
10230;SDS011;62604;49.432;8.680;2023-08-12T02:35:52;5.15;;;4.75;;
10230;SDS011;62604;49.432;8.680;2023-08-12T02:38:20;5.47;;;4.90;;
10230;SDS011;62604;49.432;8.680;2023-08-12T02:40:47;5.00;;;4.60;;
10230;SDS011;62604;49.432;8.680;2023-08-12T02:43:15;4.93;;;4.53;;
10230;SDS011;62604;49.432;8.680;2023-08-12T02:45:42;5.45;;;4.93;;
10230;SDS011;62604;49.432;8.680;2023-08-12T02:48:10;5.40;;;5.00;;
10230;SDS011;62604;49.432;8.680;2023-08-12T02:50:38;5.45;;;4.97;;
10230;SDS011;62604;49.432;8.680;2023-08-12T02:53:05;5.53;;;5.03;;
10230;SDS011;62604;49.432;8.680;2023-08-12T02:55:33;5.43;;;4.93;;
10230;SDS011;62604;49.432;8.680;2023-08-12T02:58:01;7.43;;;5.40;;
10230;SDS011;62604;49.432;8.680;2023-08-12T03:00:28;5.63;;;5.07;;
10230;SDS011;62604;49.432;8.680;2023-08-12T03:02:55;5.32;;;4.82;;
10230;SDS011;62604;49.432;8.680;2023-08-12T03:05:23;5.22;;;4.70;;
10230;SDS011;62604;49.432;8.680;2023-08-12T03:07:50;5.07;;;4.47;;
10230;SDS011;62604;49.432;8.680;2023-08-12T03:10:17;7.13;;;5.10;;
10230;SDS011;62604;49.432;8.680;2023-08-12T03:12:44;5.57;;;4.97;;
10230;SDS011;62604;49.432;8.680;2023-08-12T03:15:12;9.55;;;5.30;;
10230;SDS011;62604;49.432;8.680;2023-08-12T03:17:39;5.28;;;4.78;;
10230;SDS011;62604;49.432;8.680;2023-08-12T03:20:07;7.60;;;4.90;;
10230;SDS011;62604;49.432;8.680;2023-08-12T03:22:36;6.07;;;5.47;;
10230;SDS011;62604;49.432;8.680;2023-08-12T03:25:04;5.22;;;4.82;;
10230;SDS011;62604;49.432;8.680;2023-08-12T03:27:32;5.50;;;5.00;;
10230;SDS011;62604;49.432;8.680;2023-08-12T03:29:58;5.53;;;5.03;;
10230;SDS011;62604;49.432;8.680;2023-08-12T03:32:25;5.35;;;4.85;;
10230;SDS011;62604;49.432;8.680;2023-08-12T03:34:52;5.75;;;5.25;;
10230;SDS011;62604;49.432;8.680;2023-08-12T03:37:19;5.30;;;4.88;;
10230;SDS011;62604;49.432;8.680;2023-08-12T03:39:47;5.28;;;4.88;;
10230;SDS011;62604;49.432;8.680;2023-08-12T03:42:14;5.53;;;5.03;;
10230;SDS011;62604;49.432;8.680;2023-08-12T03:44:42;8.50;;;5.10;;
10230;SDS011;62604;49.432;8.680;2023-08-12T03:47:09;5.78;;;4.90;;
10230;SDS011;62604;49.432;8.680;2023-08-12T03:49:36;5.28;;;4.88;;
10230;SDS011;62604;49.432;8.680;2023-08-12T03:52:03;5.10;;;4.70;;
10230;SDS011;62604;49.432;8.680;2023-08-12T03:54:32;7.32;;;5.50;;
10230;SDS011;62604;49.432;8.680;2023-08-12T03:57:00;8.45;;;5.18;;
10230;SDS011;62604;49.432;8.680;2023-08-12T03:59:27;5.72;;;5.22;;
10230;SDS011;62604;49.432;8.680;2023-08-12T04:01:54;7.82;;;4.97;;
10230;SDS011;62604;49.432;8.680;2023-08-12T04:04:21;5.20;;;4.70;;
10230;SDS011;62604;49.432;8.680;2023-08-12T04:06:48;5.60;;;5.10;;
10230;SDS011;62604;49.432;8.680;2023-08-12T04:09:16;8.82;;;5.00;;
10230;SDS011;62604;49.432;8.680;2023-08-12T04:11:43;9.27;;;4.90;;
10230;SDS011;62604;49.432;8.680;2023-08-12T04:14:12;5.50;;;5.00;;
10230;SDS011;62604;49.432;8.680;2023-08-12T04:16:39;4.90;;;4.50;;
10230;SDS011;62604;49.432;8.680;2023-08-12T04:19:06;6.50;;;4.40;;
10230;SDS011;62604;49.432;8.680;2023-08-12T04:21:33;4.95;;;4.60;;
10230;SDS011;62604;49.432;8.680;2023-08-12T04:24:00;5.10;;;4.60;;
10230;SDS011;62604;49.432;8.680;2023-08-12T04:26:27;4.88;;;4.53;;
10230;SDS011;62604;49.432;8.680;2023-08-12T04:28:54;4.55;;;4.25;;
10230;SDS011;62604;49.432;8.680;2023-08-12T04:31:22;5.10;;;4.70;;
10230;SDS011;62604;49.432;8.680;2023-08-12T04:33:49;5.28;;;4.78;;
10230;SDS011;62604;49.432;8.680;2023-08-12T04:36:18;5.43;;;5.03;;
10230;SDS011;62604;49.432;8.680;2023-08-12T04:38:45;4.85;;;4.47;;
10230;SDS011;62604;49.432;8.680;2023-08-12T04:41:11;4.80;;;4.40;;
10230;SDS011;62604;49.432;8.680;2023-08-12T04:43:39;6.78;;;4.70;;
10230;SDS011;62604;49.432;8.680;2023-08-12T04:46:06;4.90;;;4.50;;
10230;SDS011;62604;49.432;8.680;2023-08-12T04:48:34;10.98;;;5.07;;
10230;SDS011;62604;49.432;8.680;2023-08-12T04:51:01;5.28;;;4.78;;
10230;SDS011;62604;49.432;8.680;2023-08-12T04:53:30;5.30;;;4.88;;
10230;SDS011;62604;49.432;8.680;2023-08-12T04:55:57;5.57;;;4.93;;
10230;SDS011;62604;49.432;8.680;2023-08-12T04:58:24;5.95;;;4.65;;
10230;SDS011;62604;49.432;8.680;2023-08-12T05:00:51;5.57;;;4.47;;
10230;SDS011;62604;49.432;8.680;2023-08-12T05:03:18;5.90;;;5.30;;
10230;SDS011;62604;49.432;8.680;2023-08-12T05:05:49;5.57;;;4.97;;
10230;SDS011;62604;49.432;8.680;2023-08-12T05:08:18;5.13;;;4.63;;
10230;SDS011;62604;49.432;8.680;2023-08-12T05:10:46;5.07;;;4.68;;
10230;SDS011;62604;49.432;8.680;2023-08-12T05:13:14;5.18;;;4.68;;
10230;SDS011;62604;49.432;8.680;2023-08-12T05:15:41;4.97;;;4.22;;
10230;SDS011;62604;49.432;8.680;2023-08-12T05:18:08;5.20;;;4.55;;
10230;SDS011;62604;49.432;8.680;2023-08-12T05:20:34;4.95;;;4.55;;
10230;SDS011;62604;49.432;8.680;2023-08-12T05:23:03;5.30;;;4.80;;
10230;SDS011;62604;49.432;8.680;2023-08-12T05:25:31;4.75;;;4.38;;
10230;SDS011;62604;49.432;8.680;2023-08-12T05:27:58;4.95;;;4.55;;
10230;SDS011;62604;49.432;8.680;2023-08-12T05:30:24;4.72;;;4.32;;
10230;SDS011;62604;49.432;8.680;2023-08-12T05:32:51;5.97;;;5.05;;
10230;SDS011;62604;49.432;8.680;2023-08-12T05:35:18;8.30;;;4.75;;
10230;SDS011;62604;49.432;8.680;2023-08-12T05:37:45;5.55;;;4.80;;
10230;SDS011;62604;49.432;8.680;2023-08-12T05:40:13;6.82;;;4.45;;
10230;SDS011;62604;49.432;8.680;2023-08-12T05:42:40;5.00;;;4.60;;
10230;SDS011;62604;49.432;8.680;2023-08-12T05:45:07;5.47;;;4.28;;
10230;SDS011;62604;49.432;8.680;2023-08-12T05:47:35;4.80;;;4.32;;
10230;SDS011;62604;49.432;8.680;2023-08-12T05:50:03;4.95;;;4.45;;
10230;SDS011;62604;49.432;8.680;2023-08-12T05:52:31;5.45;;;4.90;;
10230;SDS011;62604;49.432;8.680;2023-08-12T05:54:58;4.70;;;4.30;;
10230;SDS011;62604;49.432;8.680;2023-08-12T05:57:27;4.82;;;4.28;;
10230;SDS011;62604;49.432;8.680;2023-08-12T05:59:54;6.75;;;4.82;;
10230;SDS011;62604;49.432;8.680;2023-08-12T06:02:21;6.78;;;4.60;;
10230;SDS011;62604;49.432;8.680;2023-08-12T06:04:48;4.60;;;4.30;;
10230;SDS011;62604;49.432;8.680;2023-08-12T06:07:15;4.47;;;4.10;;
10230;SDS011;62604;49.432;8.680;2023-08-12T06:09:43;5.43;;;4.50;;
10230;SDS011;62604;49.432;8.680;2023-08-12T06:12:10;5.10;;;4.60;;
10230;SDS011;62604;49.432;8.680;2023-08-12T06:14:38;4.97;;;4.57;;
10230;SDS011;62604;49.432;8.680;2023-08-12T06:17:05;4.90;;;4.40;;
10230;SDS011;62604;49.432;8.680;2023-08-12T06:19:32;4.88;;;4.47;;
10230;SDS011;62604;49.432;8.680;2023-08-12T06:22:00;4.70;;;4.30;;
10230;SDS011;62604;49.432;8.680;2023-08-12T06:24:26;6.53;;;4.18;;
10230;SDS011;62604;49.432;8.680;2023-08-12T06:26:53;4.70;;;4.35;;
10230;SDS011;62604;49.432;8.680;2023-08-12T06:29:20;6.40;;;5.80;;
10230;SDS011;62604;49.432;8.680;2023-08-12T06:31:48;5.82;;;4.60;;
10230;SDS011;62604;49.432;8.680;2023-08-12T06:34:16;5.15;;;4.40;;
10230;SDS011;62604;49.432;8.680;2023-08-12T06:36:43;5.00;;;4.60;;
10230;SDS011;62604;49.432;8.680;2023-08-12T06:39:10;5.32;;;4.82;;
10230;SDS011;62604;49.432;8.680;2023-08-12T06:41:36;4.55;;;4.25;;
10230;SDS011;62604;49.432;8.680;2023-08-12T06:44:04;4.95;;;4.38;;
10230;SDS011;62604;49.432;8.680;2023-08-12T06:46:31;4.35;;;4.05;;
10230;SDS011;62604;49.432;8.680;2023-08-12T06:48:59;9.60;;;4.93;;
10230;SDS011;62604;49.432;8.680;2023-08-12T06:51:26;5.00;;;4.50;;
10230;SDS011;62604;49.432;8.680;2023-08-12T06:53:53;5.60;;;4.50;;
10230;SDS011;62604;49.432;8.680;2023-08-12T06:56:20;4.85;;;4.45;;
10230;SDS011;62604;49.432;8.680;2023-08-12T06:58:47;4.75;;;4.38;;
10230;SDS011;62604;49.432;8.680;2023-08-12T07:01:14;4.70;;;4.40;;
10230;SDS011;62604;49.432;8.680;2023-08-12T07:03:40;4.90;;;4.50;;
10230;SDS011;62604;49.432;8.680;2023-08-12T07:06:09;5.15;;;4.65;;
10230;SDS011;62604;49.432;8.680;2023-08-12T07:08:36;5.13;;;4.70;;
10230;SDS011;62604;49.432;8.680;2023-08-12T07:11:03;4.95;;;4.55;;
10230;SDS011;62604;49.432;8.680;2023-08-12T07:13:30;5.45;;;4.95;;
10230;SDS011;62604;49.432;8.680;2023-08-12T07:15:58;4.63;;;4.22;;
10230;SDS011;62604;49.432;8.680;2023-08-12T07:18:26;5.25;;;4.75;;
10230;SDS011;62604;49.432;8.680;2023-08-12T07:20:54;5.20;;;4.70;;
10230;SDS011;62604;49.432;8.680;2023-08-12T07:23:22;6.32;;;4.90;;
10230;SDS011;62604;49.432;8.680;2023-08-12T07:25:49;5.63;;;5.15;;
10230;SDS011;62604;49.432;8.680;2023-08-12T07:28:16;6.53;;;5.00;;
10230;SDS011;62604;49.432;8.680;2023-08-12T07:30:42;5.10;;;4.70;;
10230;SDS011;62604;49.432;8.680;2023-08-12T07:33:09;5.22;;;4.82;;
10230;SDS011;62604;49.432;8.680;2023-08-12T07:35:36;6.35;;;4.63;;
10230;SDS011;62604;49.432;8.680;2023-08-12T07:38:03;4.38;;;4.05;;
10230;SDS011;62604;49.432;8.680;2023-08-12T07:40:31;4.90;;;4.50;;
10230;SDS011;62604;49.432;8.680;2023-08-12T07:42:59;6.07;;;4.53;;
10230;SDS011;62604;49.432;8.680;2023-08-12T07:45:25;5.13;;;4.63;;
10230;SDS011;62604;49.432;8.680;2023-08-12T07:47:52;5.53;;;4.88;;
10230;SDS011;62604;49.432;8.680;2023-08-12T07:50:19;5.78;;;5.28;;
10230;SDS011;62604;49.432;8.680;2023-08-12T07:52:47;5.22;;;4.75;;
10230;SDS011;62604;49.432;8.680;2023-08-12T07:55:14;10.30;;;5.38;;
10230;SDS011;62604;49.432;8.680;2023-08-12T07:57:42;5.57;;;5.10;;
10230;SDS011;62604;49.432;8.680;2023-08-12T08:00:11;5.47;;;4.97;;
10230;SDS011;62604;49.432;8.680;2023-08-12T08:02:38;5.45;;;4.90;;
10230;SDS011;62604;49.432;8.680;2023-08-12T08:05:12;5.10;;;4.70;;
10230;SDS011;62604;49.432;8.680;2023-08-12T08:08:03;4.88;;;4.20;;
10230;SDS011;62604;49.432;8.680;2023-08-12T08:10:30;5.63;;;5.15;;
10230;SDS011;62604;49.432;8.680;2023-08-12T08:12:58;4.78;;;4.38;;
10230;SDS011;62604;49.432;8.680;2023-08-12T08:15:25;5.03;;;4.63;;
10230;SDS011;62604;49.432;8.680;2023-08-12T08:17:52;5.00;;;4.60;;
10230;SDS011;62604;49.432;8.680;2023-08-12T08:20:19;4.95;;;4.55;;
10230;SDS011;62604;49.432;8.680;2023-08-12T08:22:46;4.82;;;4.47;;
10230;SDS011;62604;49.432;8.680;2023-08-12T08:25:13;5.13;;;4.57;;
10230;SDS011;62604;49.432;8.680;2023-08-12T08:27:40;4.60;;;4.20;;
10230;SDS011;62604;49.432;8.680;2023-08-12T08:30:09;4.55;;;4.25;;
10230;SDS011;62604;49.432;8.680;2023-08-12T08:32:37;4.72;;;4.32;;
10230;SDS011;62604;49.432;8.680;2023-08-12T08:35:04;5.05;;;4.53;;
10230;SDS011;62604;49.432;8.680;2023-08-12T08:37:31;4.82;;;4.30;;
10230;SDS011;62604;49.432;8.680;2023-08-12T08:39:58;4.93;;;4.53;;
10230;SDS011;62604;49.432;8.680;2023-08-12T08:42:25;4.80;;;4.40;;
10230;SDS011;62604;49.432;8.680;2023-08-12T08:44:53;5.05;;;3.97;;
10230;SDS011;62604;49.432;8.680;2023-08-12T08:47:25;4.43;;;3.70;;
10230;SDS011;62604;49.432;8.680;2023-08-12T08:49:53;4.85;;;4.32;;
10230;SDS011;62604;49.432;8.680;2023-08-12T08:52:22;4.30;;;3.90;;
10230;SDS011;62604;49.432;8.680;2023-08-12T08:54:50;4.53;;;4.20;;
10230;SDS011;62604;49.432;8.680;2023-08-12T08:57:17;5.50;;;4.20;;
10230;SDS011;62604;49.432;8.680;2023-08-12T08:59:45;4.80;;;4.50;;
10230;SDS011;62604;49.432;8.680;2023-08-12T09:02:13;5.18;;;4.65;;
10230;SDS011;62604;49.432;8.680;2023-08-12T09:04:45;4.70;;;4.32;;
10230;SDS011;62604;49.432;8.680;2023-08-12T09:07:13;4.90;;;4.50;;
10230;SDS011;62604;49.432;8.680;2023-08-12T09:09:40;9.77;;;4.28;;
10230;SDS011;62604;49.432;8.680;2023-08-12T09:12:13;4.93;;;4.55;;
10230;SDS011;62604;49.432;8.680;2023-08-12T09:14:41;7.10;;;4.20;;
10230;SDS011;62604;49.432;8.680;2023-08-12T09:17:08;4.70;;;4.28;;
10230;SDS011;62604;49.432;8.680;2023-08-12T09:19:36;6.75;;;4.32;;
10230;SDS011;62604;49.432;8.680;2023-08-12T09:22:04;4.90;;;4.10;;
10230;SDS011;62604;49.432;8.680;2023-08-12T09:24:31;6.53;;;4.45;;
10230;SDS011;62604;49.432;8.680;2023-08-12T09:26:58;4.55;;;4.25;;
10230;SDS011;62604;49.432;8.680;2023-08-12T09:29:28;4.80;;;4.30;;
10230;SDS011;62604;49.432;8.680;2023-08-12T09:32:04;4.65;;;4.35;;
10230;SDS011;62604;49.432;8.680;2023-08-12T09:34:33;5.40;;;4.90;;
10230;SDS011;62604;49.432;8.680;2023-08-12T09:37:01;5.20;;;4.80;;
10230;SDS011;62604;49.432;8.680;2023-08-12T09:39:29;5.78;;;5.25;;
10230;SDS011;62604;49.432;8.680;2023-08-12T09:41:57;7.32;;;4.78;;
10230;SDS011;62604;49.432;8.680;2023-08-12T09:44:24;4.45;;;4.15;;
10230;SDS011;62604;49.432;8.680;2023-08-12T09:46:55;4.63;;;4.18;;
10230;SDS011;62604;49.432;8.680;2023-08-12T09:49:24;4.90;;;4.50;;
10230;SDS011;62604;49.432;8.680;2023-08-12T09:51:51;5.13;;;4.65;;
10230;SDS011;62604;49.432;8.680;2023-08-12T09:54:19;5.55;;;4.38;;
10230;SDS011;62604;49.432;8.680;2023-08-12T09:56:48;5.40;;;4.90;;
10230;SDS011;62604;49.432;8.680;2023-08-12T09:59:18;6.10;;;4.68;;
10230;SDS011;62604;49.432;8.680;2023-08-12T10:01:46;5.72;;;4.45;;
10230;SDS011;62604;49.432;8.680;2023-08-12T10:04:16;5.05;;;4.55;;
10230;SDS011;62604;49.432;8.680;2023-08-12T10:06:44;4.68;;;4.22;;
10230;SDS011;62604;49.432;8.680;2023-08-12T10:09:12;5.05;;;4.65;;
10230;SDS011;62604;49.432;8.680;2023-08-12T10:11:41;5.70;;;4.53;;
10230;SDS011;62604;49.432;8.680;2023-08-12T10:14:10;5.28;;;4.88;;
10230;SDS011;62604;49.432;8.680;2023-08-12T10:16:37;4.82;;;4.43;;
10230;SDS011;62604;49.432;8.680;2023-08-12T10:19:05;5.22;;;4.57;;
10230;SDS011;62604;49.432;8.680;2023-08-12T10:21:32;4.47;;;4.18;;
10230;SDS011;62604;49.432;8.680;2023-08-12T10:24:00;4.72;;;4.22;;
10230;SDS011;62604;49.432;8.680;2023-08-12T10:26:28;4.40;;;3.85;;
10230;SDS011;62604;49.432;8.680;2023-08-12T10:28:56;4.97;;;4.50;;
10230;SDS011;62604;49.432;8.680;2023-08-12T10:31:24;5.47;;;4.30;;
10230;SDS011;62604;49.432;8.680;2023-08-12T10:33:54;6.07;;;4.47;;
10230;SDS011;62604;49.432;8.680;2023-08-12T10:36:23;6.07;;;4.50;;
10230;SDS011;62604;49.432;8.680;2023-08-12T10:38:52;6.05;;;4.53;;
10230;SDS011;62604;49.432;8.680;2023-08-12T10:41:19;6.55;;;4.82;;
10230;SDS011;62604;49.432;8.680;2023-08-12T10:43:48;5.60;;;5.10;;
10230;SDS011;62604;49.432;8.680;2023-08-12T10:46:28;4.53;;;4.13;;
10230;SDS011;62604;49.432;8.680;2023-08-12T10:48:57;4.90;;;4.50;;
10230;SDS011;62604;49.432;8.680;2023-08-12T10:51:39;4.75;;;4.35;;
10230;SDS011;62604;49.432;8.680;2023-08-12T10:54:13;4.88;;;4.47;;
10230;SDS011;62604;49.432;8.680;2023-08-12T11:02:29;4.85;;;4.35;;
10230;SDS011;62604;49.432;8.680;2023-08-12T11:05:00;5.00;;;4.50;;
10230;SDS011;62604;49.432;8.680;2023-08-12T11:07:31;4.82;;;4.43;;
10230;SDS011;62604;49.432;8.680;2023-08-12T11:10:03;5.28;;;4.78;;
10230;SDS011;62604;49.432;8.680;2023-08-12T11:12:33;5.05;;;4.60;;
10230;SDS011;62604;49.432;8.680;2023-08-12T11:15:01;5.05;;;4.65;;
10230;SDS011;62604;49.432;8.680;2023-08-12T11:17:35;4.90;;;4.50;;
10230;SDS011;62604;49.432;8.680;2023-08-12T11:20:03;4.75;;;4.40;;
10230;SDS011;62604;49.432;8.680;2023-08-12T11:22:32;6.82;;;6.13;;
10230;SDS011;62604;49.432;8.680;2023-08-12T11:25:02;9.02;;;7.18;;
10230;SDS011;62604;49.432;8.680;2023-08-12T11:27:35;9.93;;;9.00;;
10230;SDS011;62604;49.432;8.680;2023-08-12T11:30:04;8.52;;;7.68;;
10230;SDS011;62604;49.432;8.680;2023-08-12T11:32:33;9.48;;;7.88;;
10230;SDS011;62604;49.432;8.680;2023-08-12T11:35:02;8.18;;;7.47;;
10230;SDS011;62604;49.432;8.680;2023-08-12T11:37:30;8.93;;;8.13;;
10230;SDS011;62604;49.432;8.680;2023-08-12T11:39:57;9.48;;;7.95;;
10230;SDS011;62604;49.432;8.680;2023-08-12T11:42:24;8.20;;;7.50;;
10230;SDS011;62604;49.432;8.680;2023-08-12T11:44:51;9.20;;;8.07;;
10230;SDS011;62604;49.432;8.680;2023-08-12T11:47:18;9.15;;;8.35;;
10230;SDS011;62604;49.432;8.680;2023-08-12T11:49:46;9.30;;;8.32;;
10230;SDS011;62604;49.432;8.680;2023-08-12T11:52:15;7.28;;;6.68;;
10230;SDS011;62604;49.432;8.680;2023-08-12T11:54:42;6.38;;;5.97;;
10230;SDS011;62604;49.432;8.680;2023-08-12T11:57:09;7.20;;;6.55;;
10230;SDS011;62604;49.432;8.680;2023-08-12T11:59:36;6.93;;;6.32;;
10230;SDS011;62604;49.432;8.680;2023-08-12T12:02:04;7.40;;;6.63;;
10230;SDS011;62604;49.432;8.680;2023-08-12T12:04:31;7.32;;;6.72;;
10230;SDS011;62604;49.432;8.680;2023-08-12T12:06:59;6.93;;;6.30;;
10230;SDS011;62604;49.432;8.680;2023-08-12T12:09:31;6.65;;;6.05;;
10230;SDS011;62604;49.432;8.680;2023-08-12T12:11:59;5.65;;;5.25;;
10230;SDS011;62604;49.432;8.680;2023-08-12T12:14:28;5.70;;;5.30;;
10230;SDS011;62604;49.432;8.680;2023-08-12T12:16:55;5.32;;;4.90;;
10230;SDS011;62604;49.432;8.680;2023-08-12T12:19:22;6.85;;;5.75;;
10230;SDS011;62604;49.432;8.680;2023-08-12T12:21:50;5.32;;;5.03;;
10230;SDS011;62604;49.432;8.680;2023-08-12T12:24:20;8.25;;;5.10;;
10230;SDS011;62604;49.432;8.680;2023-08-12T12:26:47;5.63;;;5.13;;
10230;SDS011;62604;49.432;8.680;2023-08-12T12:29:14;5.60;;;5.13;;
10230;SDS011;62604;49.432;8.680;2023-08-12T12:31:41;7.90;;;4.85;;
10230;SDS011;62604;49.432;8.680;2023-08-12T12:34:08;5.70;;;5.07;;
10230;SDS011;62604;49.432;8.680;2023-08-12T12:36:36;5.05;;;4.65;;
10230;SDS011;62604;49.432;8.680;2023-08-12T12:39:09;5.20;;;4.38;;
10230;SDS011;62604;49.432;8.680;2023-08-12T12:41:39;7.25;;;4.75;;
10230;SDS011;62604;49.432;8.680;2023-08-12T12:44:06;4.22;;;3.92;;
10230;SDS011;62604;49.432;8.680;2023-08-12T12:46:33;3.85;;;3.55;;
10230;SDS011;62604;49.432;8.680;2023-08-12T12:49:01;4.38;;;2.45;;
10230;SDS011;62604;49.432;8.680;2023-08-12T12:51:28;4.00;;;3.70;;
10230;SDS011;62604;49.432;8.680;2023-08-12T12:53:55;3.50;;;3.30;;
10230;SDS011;62604;49.432;8.680;2023-08-12T12:56:22;4.22;;;3.92;;
10230;SDS011;62604;49.432;8.680;2023-08-12T12:58:50;3.65;;;2.70;;
10230;SDS011;62604;49.432;8.680;2023-08-12T13:01:17;5.25;;;2.20;;
10230;SDS011;62604;49.432;8.680;2023-08-12T13:03:44;2.58;;;2.33;;
10230;SDS011;62604;49.432;8.680;2023-08-12T13:06:11;3.92;;;2.10;;
10230;SDS011;62604;49.432;8.680;2023-08-12T13:08:38;3.22;;;2.50;;
10230;SDS011;62604;49.432;8.680;2023-08-12T13:11:05;2.85;;;2.65;;
10230;SDS011;62604;49.432;8.680;2023-08-12T13:13:32;4.32;;;3.20;;
10230;SDS011;62604;49.432;8.680;2023-08-12T13:16:00;4.90;;;2.83;;
10230;SDS011;62604;49.432;8.680;2023-08-12T13:18:27;5.20;;;4.78;;
10230;SDS011;62604;49.432;8.680;2023-08-12T13:20:54;5.40;;;5.00;;
10230;SDS011;62604;49.432;8.680;2023-08-12T13:23:21;5.68;;;5.28;;
10230;SDS011;62604;49.432;8.680;2023-08-12T13:25:48;5.80;;;5.30;;
10230;SDS011;62604;49.432;8.680;2023-08-12T13:28:15;5.30;;;4.80;;
10230;SDS011;62604;49.432;8.680;2023-08-12T13:30:43;5.47;;;4.97;;
10230;SDS011;62604;49.432;8.680;2023-08-12T13:33:11;5.65;;;5.15;;
10230;SDS011;62604;49.432;8.680;2023-08-12T13:35:38;4.78;;;4.47;;
10230;SDS011;62604;49.432;8.680;2023-08-12T13:38:05;4.90;;;4.50;;
10230;SDS011;62604;49.432;8.680;2023-08-12T13:40:32;4.97;;;4.57;;
10230;SDS011;62604;49.432;8.680;2023-08-12T13:42:59;5.95;;;4.78;;
10230;SDS011;62604;49.432;8.680;2023-08-12T13:45:26;5.82;;;5.30;;
10230;SDS011;62604;49.432;8.680;2023-08-12T13:47:53;5.90;;;4.07;;
10230;SDS011;62604;49.432;8.680;2023-08-12T13:50:21;5.15;;;4.05;;
10230;SDS011;62604;49.432;8.680;2023-08-12T13:52:49;5.03;;;4.53;;
10230;SDS011;62604;49.432;8.680;2023-08-12T13:55:16;4.40;;;4.00;;
10230;SDS011;62604;49.432;8.680;2023-08-12T13:57:43;4.78;;;4.40;;
10230;SDS011;62604;49.432;8.680;2023-08-12T14:00:10;4.82;;;4.32;;
10230;SDS011;62604;49.432;8.680;2023-08-12T14:02:39;4.35;;;3.95;;
10230;SDS011;62604;49.432;8.680;2023-08-12T14:05:06;7.35;;;4.15;;
10230;SDS011;62604;49.432;8.680;2023-08-12T14:07:36;4.60;;;4.20;;
10230;SDS011;62604;49.432;8.680;2023-08-12T14:10:04;4.35;;;3.95;;
10230;SDS011;62604;49.432;8.680;2023-08-12T14:12:32;4.78;;;4.30;;
10230;SDS011;62604;49.432;8.680;2023-08-12T14:14:59;4.28;;;3.97;;
10230;SDS011;62604;49.432;8.680;2023-08-12T14:17:26;4.40;;;4.00;;
10230;SDS011;62604;49.432;8.680;2023-08-12T14:19:53;5.18;;;4.32;;
10230;SDS011;62604;49.432;8.680;2023-08-12T14:22:20;3.78;;;3.47;;
10230;SDS011;62604;49.432;8.680;2023-08-12T14:24:48;3.70;;;3.40;;
10230;SDS011;62604;49.432;8.680;2023-08-12T14:27:15;3.47;;;3.25;;
10230;SDS011;62604;49.432;8.680;2023-08-12T14:29:43;3.97;;;3.58;;
10230;SDS011;62604;49.432;8.680;2023-08-12T14:32:11;4.15;;;3.85;;
10230;SDS011;62604;49.432;8.680;2023-08-12T14:34:38;4.38;;;4.07;;
10230;SDS011;62604;49.432;8.680;2023-08-12T14:37:05;3.90;;;3.60;;
10230;SDS011;62604;49.432;8.680;2023-08-12T14:39:33;5.63;;;4.10;;
10230;SDS011;62604;49.432;8.680;2023-08-12T14:42:01;3.72;;;3.42;;
10230;SDS011;62604;49.432;8.680;2023-08-12T14:44:29;4.78;;;4.35;;
10230;SDS011;62604;49.432;8.680;2023-08-12T14:46:57;5.00;;;4.47;;
10230;SDS011;62604;49.432;8.680;2023-08-12T14:49:24;4.53;;;4.13;;
10230;SDS011;62604;49.432;8.680;2023-08-12T14:51:51;4.20;;;3.90;;
10230;SDS011;62604;49.432;8.680;2023-08-12T14:54:18;3.85;;;3.55;;
10230;SDS011;62604;49.432;8.680;2023-08-12T14:56:44;4.82;;;4.03;;